Durango, Mexico

9:15 PM EST on July 28, 2016 (GMT -0500)
Durango | | Change Station

Elev 6093 ft 24.12 °N, 104.53 °W | Updated 31 minutes ago

Overcast
Overcast
68 °F
Feels Like 68 °F
N
0
Wind Variable Wind from North

Today
High -- | Low -- °F
--% Chance of Precip.
Yesterday
High -- | Low -- °F
Precip. -- in
Pressure 30.19 in
Visibility 10.0 miles
Clouds Mostly Cloudy 3000 ft
Overcast 7000 ft
Dew Point 57 °F
Humidity 68%
Rainfall 0.00 in
Snow Depth Not available.
7:25 AM 8:43 PM
Waning Crescent, 26% visible
METAR MMDO 290144Z 00000KT 10SM BKN030CB OVC070 20/14 A3019 RMK 8/36/ OCNL DROPS OCNL DSNT LTGCC 4 AND 3 QUAD
Pressure 30.19 in
Visibility 10.0 miles
Clouds Mostly Cloudy 3000 ft
Overcast 7000 ft
Dew Point 57 °F
Humidity 68%
Rainfall 0.00 in
Snow Depth Not available.
7:25 AM 8:43 PM
Waning Crescent, 26% visible
METAR MMDO 290144Z 00000KT 10SM BKN030CB OVC070 20/14 A3019 RMK 8/36/ OCNL DROPS OCNL DSNT LTGCC 4 AND 3 QUAD

10-Day Weather Forecast

No radar image for this location.
×

Almanac

Astronomy

Jul. 28, 2016 Rise Set
Actual Time
Civil Twilight
Nautical Twilight
Astronomical Twilight
Moon
Length of Visible Light
Length of Day
Tomorrow will be .
, % of the Moon is Illuminated

Today's Extremes

Country Highs Country Lows

Community

WunderPhotos

Upload Photos

1,928,266 photos uploaded!

WunderBlog® & News

Nearby

Air Quality

  Air Quality AQ Index Pollutant
Not available.

Snow Depth

Station Depth Elevation

Earthquake Activity

City Distance Mag. Time & Date
Minimum magnitude displayed is 2.5.

Coastal Water Temperatures

Place Temperature

Stations

Nearby Weather Stations

Station Location Temp. Windchill Dew Point Humidity Wind Precip. Elev Updated Type